UKLR/RWN METAR and TAF weather

Enter ICAO airport designator
Station Type Date Time Source
UKLR METAR 2019/06/18 15:00 UTC NOAA

UKLR 181500Z 03003MPS CAVOK 25/15 Q1018 NOSIG


Station Type Date Time Source
UKLR Decoded METAR 2019/06/18 15:00 UTC NOAA

Rivne, Ukraine (UKLR) 50-35N 026-08E
Jun 18, 2019 - 11:00 AM EDT / 2019.06.18 1500 UTC
Wind: from the NNE (030 degrees) at 7 MPH (6 KT):0
Visibility: greater than 7 mile(s):0
Temperature: 77 F (25 C)
Dew Point: 59 F (15 C)
Relative Humidity: 53%
Pressure (altimeter): 30.06 in. Hg (1018 hPa)
ob: UKLR 181500Z 03003MPS CAVOK 25/15 Q1018 NOSIG
cycle: 15

Station Type Date Time Source
UKLR TAF 2019/01/25 06:18 UTC NOAA

TAF TAF UKLR 250512Z 2506/2615 09007G12MPS 9999 BKN010
TEMPO 2606/2615 12009G14MPS 2100 -SN BLSN BKN005

Example: see airport list